Terminal Aerodrome Forecast
Issued by NWS

Home | Current Version | Previous Version | Text Only | Print | Product List | Glossary On
Versions: 1 2 3 4 5 6 7 8 9 10 11 12 13 14 15 16 17 18 19 20 21 22 23 24 25
000
FTUS43 KDVN 181100 RRA
TAFBRL
TAF
KBRL 181142Z 1812/1912 VRB02KT 2SM BR FEW001 OVC045
      TEMPO 1812/1814 1/2SM FG BKN001
     FM181400 18006KT P6SM SCT250
     FM181800 20008KT P6SM SCT035 PROB30 1900/1906 5SM -TSRA BR
      BKN020CB
     FM190600 24005KT 6SM BR SCT150=

USA.gov is the U.S. government's official web portal to all federal, state and local government web resources and services.